Time;durP1;ratioP1;P1;durP2;ratioP2;P2;SDS_P1;SDS_P2;PMS_P1;PMS_P2;Temp;Humidity;BMP_temperature;BMP_pressure;BME280_temperature;BME280_humidity;BME280_pressure;Samples;Min_cycle;Max_cycle;Signal;HPM_P1;HPM_P2
2023/09/12 00:02:18;;;;;;;4.88;3.20;;;18.10;99.90;;;;;;5164239;28;20084;-75
2023/09/12 00:04:50;;;;;;;4.32;2.78;;;18.30;99.90;;;;;;5164947;28;20026;-77
2023/09/12 00:07:21;;;;;;;3.35;3.05;;;18.30;99.90;;;;;;5166088;28;20097;-76
2023/09/12 00:09:52;;;;;;;4.10;3.22;;;18.20;99.90;;;;;;5166122;28;20038;-76
2023/09/12 00:12:26;;;;;;;3.38;3.17;;;18.00;99.90;;;;;;5164781;28;20027;-76
2023/09/12 00:14:57;;;;;;;4.07;3.13;;;18.00;99.90;;;;;;5164912;28;20033;-75
2023/09/12 00:17:28;;;;;;;6.30;3.30;;;18.00;99.90;;;;;;5166017;28;20022;-75
2023/09/12 00:19:58;;;;;;;5.20;3.33;;;18.00;99.90;;;;;;5165941;28;20037;-78
2023/09/12 00:22:29;;;;;;;5.88;3.35;;;18.00;99.90;;;;;;5164447;28;20077;-76
2023/09/12 00:25:00;;;;;;;3.38;2.88;;;17.90;99.90;;;;;;5164809;28;20433;-78
2023/09/12 00:27:31;;;;;;;3.50;3.20;;;17.80;99.90;;;;;;5165773;28;20031;-76
2023/09/12 00:30:02;;;;;;;9.93;3.53;;;17.80;99.90;;;;;;5165789;28;20105;-77
2023/09/12 00:32:33;;;;;;;8.82;3.40;;;17.90;99.90;;;;;;5165933;28;20026;-76
2023/09/12 00:35:04;;;;;;;15.73;3.13;;;17.90;99.90;;;;;;5168589;28;20026;-76
2023/09/12 00:37:35;;;;;;;4.07;3.20;;;17.90;99.90;;;;;;5169817;28;20061;-77
2023/09/12 00:40:07;;;;;;;4.72;3.53;;;17.90;99.90;;;;;;5169667;28;20058;-76
2023/09/12 00:42:38;;;;;;;4.43;3.00;;;17.90;99.90;;;;;;5169641;28;20101;-77
2023/09/12 00:45:09;;;;;;;8.68;3.50;;;17.80;99.90;;;;;;5169565;28;20102;-78
2023/09/12 00:47:40;;;;;;;10.10;3.22;;;17.80;99.90;;;;;;5168132;28;20045;-75
2023/09/12 00:50:13;;;;;;;12.48;3.47;;;17.70;99.90;;;;;;5169545;28;20050;-76
2023/09/12 00:52:45;;;;;;;17.25;3.22;;;17.90;99.90;;;;;;5169159;28;20049;-77
2023/09/12 00:55:16;;;;;;;6.88;3.22;;;17.70;99.90;;;;;;5167801;28;20474;-77
2023/09/12 00:57:48;;;;;;;3.78;3.47;;;17.70;99.90;;;;;;5169421;28;20023;-77
2023/09/12 01:00:20;;;;;;;5.63;3.17;;;17.70;99.90;;;;;;5169424;28;20026;-77
2023/09/12 01:02:53;;;;;;;3.63;3.33;;;17.40;99.90;;;;;;5169471;28;20022;-77
2023/09/12 01:05:24;;;;;;;3.90;3.60;;;17.50;99.90;;;;;;5168025;28;20044;-77
2023/09/12 01:07:56;;;;;;;3.70;3.40;;;17.30;99.90;;;;;;5168031;28;20019;-77
2023/09/12 01:10:27;;;;;;;5.35;3.42;;;17.40;99.90;;;;;;5169121;28;20070;-76
2023/09/12 01:12:58;;;;;;;3.58;3.38;;;17.30;99.90;;;;;;5168980;28;20064;-78
2023/09/12 01:15:29;;;;;;;5.13;3.67;;;17.40;99.90;;;;;;5167665;28;20054;-77
2023/09/12 01:18:00;;;;;;;5.32;3.33;;;17.40;99.90;;;;;;5169228;28;20054;-77
2023/09/12 01:20:34;;;;;;;4.43;3.78;;;17.40;99.90;;;;;;5168967;28;20105;-79
2023/09/12 01:23:32;;;;;;;4.82;3.92;;;17.30;99.90;;;;;;5168860;28;20508;-77
2023/09/12 01:26:26;;;;;;;7.35;3.80;;;17.30;99.90;;;;;;5168775;28;20022;-77
2023/09/12 01:28:59;;;;;;;4.63;3.50;;;17.40;99.90;;;;;;5168756;28;20062;-76
2023/09/12 01:31:31;;;;;;;4.05;3.72;;;17.30;99.90;;;;;;5168632;28;20041;-77
2023/09/12 01:34:11;;;;;;;4.47;3.83;;;17.40;99.90;;;;;;5167450;28;20108;-76
2023/09/12 01:36:42;;;;;;;12.23;4.63;;;17.20;99.90;;;;;;5167278;28;20030;-76
2023/09/12 01:39:13;;;;;;;5.07;4.28;;;17.10;99.90;;;;;;5168613;28;20011;-76
2023/09/12 01:41:47;;;;;;;5.50;5.00;;;17.30;99.90;;;;;;5167284;28;20035;-75
2023/09/12 01:44:22;;;;;;;7.43;4.35;;;17.30;99.90;;;;;;5166633;28;20042;-76
2023/09/12 01:46:55;;;;;;;5.50;4.13;;;17.30;99.90;;;;;;5167119;28;20061;-76
2023/09/12 01:49:28;;;;;;;4.80;4.05;;;17.20;99.90;;;;;;5167088;28;20761;-77
2023/09/12 01:51:59;;;;;;;4.25;3.85;;;17.20;99.90;;;;;;5166977;28;20046;-78
2023/09/12 01:54:32;;;;;;;5.65;3.78;;;17.20;99.90;;;;;;5166903;28;20494;-76
2023/09/12 01:57:04;;;;;;;4.65;4.30;;;17.00;99.90;;;;;;5167936;28;20034;-75
2023/09/12 01:59:35;;;;;;;7.65;4.68;;;17.10;99.90;;;;;;5168083;28;20080;-76
2023/09/12 02:02:07;;;;;;;6.07;3.47;;;17.20;99.90;;;;;;5168271;28;20030;-77
2023/09/12 02:04:37;;;;;;;7.93;4.53;;;17.00;99.90;;;;;;5166955;28;20050;-76
2023/09/12 02:07:08;;;;;;;5.45;4.25;;;17.10;99.90;;;;;;5168135;28;20505;-75
2023/09/12 02:09:39;;;;;;;4.55;4.15;;;16.90;99.90;;;;;;5167991;28;20042;-76
2023/09/12 02:12:10;;;;;;;4.68;3.85;;;16.90;99.90;;;;;;5168100;28;20046;-76
2023/09/12 02:14:41;;;;;;;5.75;4.45;;;17.00;99.90;;;;;;5166471;28;20062;-77
2023/09/12 02:17:11;;;;;;;4.97;4.45;;;17.10;99.90;;;;;;5167975;28;20034;-77
2023/09/12 02:19:42;;;;;;;6.65;5.18;;;17.30;99.90;;;;;;5167704;28;20038;-77
2023/09/12 02:22:13;;;;;;;6.45;5.05;;;17.20;99.90;;;;;;5166599;28;20026;-75
2023/09/12 02:24:44;;;;;;;6.72;4.97;;;17.40;99.90;;;;;;5167671;28;20026;-77
2023/09/12 02:27:15;;;;;;;8.15;5.57;;;17.40;99.90;;;;;;5167557;28;20146;-78
2023/09/12 02:29:46;;;;;;;8.32;5.22;;;17.30;99.90;;;;;;5167209;28;20120;-77
2023/09/12 02:32:16;;;;;;;7.95;5.40;;;17.40;99.90;;;;;;5167561;28;20027;-76
2023/09/12 02:34:47;;;;;;;12.25;4.93;;;17.40;99.90;;;;;;5166400;28;20026;-76
2023/09/12 02:37:19;;;;;;;7.38;4.70;;;17.50;99.90;;;;;;5167321;28;20104;-77
2023/09/12 02:39:49;;;;;;;9.82;5.00;;;17.40;99.90;;;;;;5167490;28;20050;-75
2023/09/12 02:42:20;;;;;;;6.93;4.82;;;17.40;99.90;;;;;;5166203;28;20513;-78
2023/09/12 02:44:52;;;;;;;6.53;4.88;;;17.40;99.90;;;;;;5166010;28;20576;-77
2023/09/12 02:47:23;;;;;;;6.63;4.70;;;17.20;99.90;;;;;;5166053;28;20053;-76
2023/09/12 02:49:54;;;;;;;6.07;5.03;;;17.00;99.90;;;;;;5165579;28;20070;-75
2023/09/12 02:52:24;;;;;;;5.20;4.50;;;17.10;99.90;;;;;;5165765;28;20046;-75
2023/09/12 02:54:55;;;;;;;5.57;4.78;;;17.40;99.90;;;;;;5165195;28;20081;-78
2023/09/12 02:57:26;;;;;;;8.43;4.85;;;17.60;99.90;;;;;;5167056;28;20057;-76
2023/09/12 02:59:57;;;;;;;7.75;4.68;;;17.30;99.90;;;;;;5167043;28;20027;-78
2023/09/12 03:02:29;;;;;;;9.90;4.72;;;17.30;99.90;;;;;;5167201;28;20029;-75
2023/09/12 03:05:01;;;;;;;6.35;4.68;;;17.40;99.90;;;;;;5167253;28;20026;-78
2023/09/12 03:07:32;;;;;;;5.78;4.78;;;17.30;99.90;;;;;;5165559;28;20085;-76
2023/09/12 03:10:03;;;;;;;5.78;4.30;;;17.40;99.90;;;;;;5165558;28;20422;-78
2023/09/12 03:12:37;;;;;;;6.57;4.57;;;17.20;99.90;;;;;;5165535;28;20038;-76
2023/09/12 03:15:08;;;;;;;8.25;4.78;;;17.10;99.90;;;;;;5165570;28;20049;-75
2023/09/12 03:17:39;;;;;;;6.65;4.55;;;17.40;99.90;;;;;;5164716;28;20037;-75
2023/09/12 03:20:11;;;;;;;5.57;4.80;;;17.20;99.90;;;;;;5166644;28;20031;-76
2023/09/12 03:22:42;;;;;;;5.95;4.38;;;17.10;99.90;;;;;;5165385;28;20039;-75
2023/09/12 03:25:13;;;;;;;5.85;4.32;;;17.30;99.90;;;;;;5166745;28;20027;-76
2023/09/12 03:27:44;;;;;;;5.75;4.78;;;17.50;99.90;;;;;;5165221;28;20079;-75
2023/09/12 03:30:14;;;;;;;7.30;4.95;;;17.50;99.90;;;;;;5165415;28;20033;-77
2023/09/12 03:32:45;;;;;;;6.43;4.72;;;17.50;99.90;;;;;;5166177;28;20034;-79
2023/09/12 03:35:16;;;;;;;7.32;5.38;;;17.50;99.90;;;;;;5166911;28;20022;-77
2023/09/12 03:37:47;;;;;;;6.40;4.88;;;17.40;99.90;;;;;;5166432;28;20034;-78
2023/09/12 03:40:18;;;;;;;8.45;5.00;;;17.40;99.90;;;;;;5165390;28;20386;-75
2023/09/12 03:42:49;;;;;;;7.25;4.72;;;17.40;99.90;;;;;;5165174;28;20026;-76
2023/09/12 03:45:20;;;;;;;5.13;4.47;;;17.40;99.90;;;;;;5166194;28;20037;-76
2023/09/12 03:47:51;;;;;;;7.13;5.00;;;17.40;99.90;;;;;;5166238;28;20026;-76
2023/09/12 03:50:22;;;;;;;6.45;4.93;;;17.50;99.90;;;;;;5165937;28;20046;-76
2023/09/12 03:52:53;;;;;;;17.10;4.80;;;17.50;99.90;;;;;;5166343;28;20101;-74
2023/09/12 03:55:24;;;;;;;6.43;5.00;;;17.50;99.90;;;;;;5166417;28;20054;-75
2023/09/12 03:57:55;;;;;;;7.07;4.82;;;17.40;99.90;;;;;;5165958;28;20105;-75
2023/09/12 04:00:26;;;;;;;7.22;4.32;;;17.20;99.90;;;;;;5165051;28;20057;-76
2023/09/12 04:02:57;;;;;;;6.28;4.72;;;17.40;99.90;;;;;;5164948;28;20027;-75
2023/09/12 04:05:27;;;;;;;6.65;4.50;;;17.30;99.90;;;;;;5166340;28;20026;-76
2023/09/12 04:07:58;;;;;;;4.50;4.10;;;17.40;99.90;;;;;;5169093;28;20118;-77
2023/09/12 04:10:29;;;;;;;5.55;4.70;;;17.40;99.90;;;;;;5170074;28;20038;-76
2023/09/12 04:13:00;;;;;;;7.40;4.38;;;17.50;99.90;;;;;;5169895;28;20029;-77
2023/09/12 04:15:31;;;;;;;5.90;4.53;;;17.50;99.90;;;;;;5168977;28;20378;-77
2023/09/12 04:18:02;;;;;;;4.78;4.05;;;17.40;99.90;;;;;;5169909;28;20037;-76
2023/09/12 04:20:33;;;;;;;7.18;4.93;;;17.30;99.90;;;;;;5169795;28;20121;-77
2023/09/12 04:23:04;;;;;;;6.00;4.82;;;17.40;99.90;;;;;;5170152;28;20077;-76
2023/09/12 04:25:35;;;;;;;6.63;4.80;;;17.50;99.90;;;;;;5169994;28;20030;-76
2023/09/12 04:28:05;;;;;;;7.65;4.75;;;17.50;99.90;;;;;;5169745;28;20109;-76
2023/09/12 04:30:36;;;;;;;6.95;4.38;;;17.60;99.90;;;;;;5168703;28;20442;-77
2023/09/12 04:33:07;;;;;;;4.97;4.38;;;17.60;99.90;;;;;;5170002;28;20512;-76
2023/09/12 04:35:38;;;;;;;5.28;4.55;;;17.60;99.90;;;;;;5169863;28;20038;-76
2023/09/12 04:38:09;;;;;;;5.43;4.65;;;17.50;99.90;;;;;;5169970;28;20130;-76
2023/09/12 04:40:40;;;;;;;6.32;5.10;;;17.60;99.90;;;;;;5169785;28;20030;-76
2023/09/12 04:43:11;;;;;;;5.35;4.45;;;17.60;99.90;;;;;;5168625;28;20041;-76
2023/09/12 04:45:41;;;;;;;4.88;4.32;;;17.60;99.90;;;;;;5169807;28;20038;-76
2023/09/12 04:48:12;;;;;;;8.18;4.60;;;17.70;99.90;;;;;;5168402;28;20113;-76
2023/09/12 04:50:43;;;;;;;4.80;4.40;;;17.90;99.90;;;;;;5169041;28;20054;-76
2023/09/12 04:53:14;;;;;;;4.68;4.28;;;17.80;99.90;;;;;;5169905;28;20049;-76
2023/09/12 04:55:45;;;;;;;6.65;4.45;;;17.80;99.90;;;;;;5167974;28;20386;-76
2023/09/12 04:58:16;;;;;;;5.05;4.45;;;18.10;99.90;;;;;;5169507;28;20030;-76
2023/09/12 05:00:47;;;;;;;4.65;4.15;;;18.00;99.90;;;;;;5169510;28;20036;-77
2023/09/12 05:03:18;;;;;;;4.40;4.00;;;18.00;99.90;;;;;;5169556;28;20026;-76
2023/09/12 05:05:50;;;;;;;4.57;4.10;;;18.00;99.90;;;;;;5169449;28;20121;-75
2023/09/12 05:08:21;;;;;;;6.13;4.57;;;18.20;99.90;;;;;;5169374;28;20469;-77
2023/09/12 05:10:52;;;;;;;5.18;4.28;;;18.20;99.90;;;;;;5167480;28;20233;-76
2023/09/12 05:13:22;;;;;;;6.03;4.60;;;18.30;99.90;;;;;;5167751;28;20038;-76
2023/09/12 05:15:53;;;;;;;4.55;4.13;;;18.40;99.90;;;;;;5168969;28;20027;-76
2023/09/12 05:18:24;;;;;;;4.45;4.05;;;18.30;99.90;;;;;;5167164;28;20022;-76
2023/09/12 05:20:55;;;;;;;4.65;4.03;;;18.60;99.90;;;;;;5167463;28;20042;-76
2023/09/12 05:23:26;;;;;;;5.80;4.03;;;18.60;99.90;;;;;;5167381;28;20117;-76
2023/09/12 05:25:57;;;;;;;5.35;4.00;;;18.50;99.90;;;;;;5168711;28;20038;-77
2023/09/12 05:28:28;;;;;;;5.35;4.03;;;18.40;99.90;;;;;;5167739;28;20069;-76
2023/09/12 05:30:58;;;;;;;4.38;4.00;;;18.60;99.90;;;;;;5167625;28;20041;-76
2023/09/12 05:33:30;;;;;;;4.07;3.67;;;18.70;99.90;;;;;;5167269;28;20030;-78
2023/09/12 05:36:04;;;;;;;4.22;3.38;;;18.50;99.90;;;;;;5168853;28;20478;-78
2023/09/12 05:38:34;;;;;;;4.80;4.03;;;18.50;99.90;;;;;;5167117;28;20028;-77
2023/09/12 05:41:05;;;;;;;4.85;4.20;;;18.60;99.90;;;;;;5167076;28;20468;-76
2023/09/12 05:43:36;;;;;;;4.65;4.10;;;18.60;99.90;;;;;;5168876;28;20033;-75
2023/09/12 05:46:07;;;;;;;4.57;3.85;;;18.80;99.90;;;;;;5168449;28;20022;-77
2023/09/12 05:48:38;;;;;;;4.15;3.70;;;18.70;99.90;;;;;;5168494;28;20438;-76
2023/09/12 05:51:09;;;;;;;5.80;3.60;;;18.70;99.90;;;;;;5167858;28;20623;-76
2023/09/12 05:53:40;;;;;;;4.43;3.75;;;18.80;99.90;;;;;;5168279;28;20105;-77
2023/09/12 05:56:11;;;;;;;4.55;3.97;;;18.80;99.90;;;;;;5168261;28;20026;-77
2023/09/12 05:58:42;;;;;;;4.18;3.88;;;19.00;99.90;;;;;;5167009;28;20506;-75
2023/09/12 06:01:14;;;;;;;3.92;3.63;;;19.20;99.90;;;;;;5168123;28;20033;-78
2023/09/12 06:03:45;;;;;;;4.30;4.00;;;19.00;99.90;;;;;;5168058;28;20023;-75
2023/09/12 06:06:16;;;;;;;4.60;4.20;;;19.00;99.90;;;;;;5166860;28;20089;-76
2023/09/12 06:08:47;;;;;;;4.32;3.85;;;19.10;99.90;;;;;;5166140;28;20117;-77
2023/09/12 06:11:18;;;;;;;4.32;3.72;;;19.20;99.90;;;;;;5167665;28;20037;-76
2023/09/12 06:13:48;;;;;;;4.95;3.95;;;19.10;99.90;;;;;;5166813;28;20492;-76
2023/09/12 06:16:19;;;;;;;7.00;4.28;;;19.10;99.90;;;;;;5167630;28;20374;-78
2023/09/12 06:18:51;;;;;;;4.07;3.75;;;19.30;99.90;;;;;;5162246;28;20499;-77
2023/09/12 06:21:22;;;;;;;5.50;4.30;;;19.30;99.90;;;;;;5147505;28;20032;-77
2023/09/12 06:24:10;;;;;;;6.78;5.88;;;19.40;99.90;;;;;;5147849;28;20466;-76
2023/09/12 06:26:41;;;;;;;4.63;4.25;;;19.50;99.90;;;;;;5162897;28;20118;-75
2023/09/12 06:29:14;;;;;;;13.65;12.60;;;19.60;99.90;;;;;;5161136;28;20070;-77
2023/09/12 06:31:44;;;;;;;5.72;5.22;;;19.90;99.90;;;;;;5146303;28;20027;-77
2023/09/12 06:34:15;;;;;;;5.40;4.93;;;20.00;99.90;;;;;;5147152;28;20411;-78
2023/09/12 06:36:46;;;;;;;6.05;5.45;;;19.90;99.90;;;;;;5145967;28;20022;-76
2023/09/12 06:39:17;;;;;;;6.25;5.75;;;20.20;99.90;;;;;;5146041;28;20041;-77
2023/09/12 06:41:48;;;;;;;6.72;6.22;;;20.30;99.90;;;;;;5147300;28;20050;-75
2023/09/12 06:44:19;;;;;;;12.48;11.43;;;20.40;99.90;;;;;;5146925;28;20065;-78
2023/09/12 06:46:50;;;;;;;8.00;7.38;;;20.80;99.90;;;;;;5146106;28;20542;-76
2023/09/12 06:49:21;;;;;;;23.05;20.75;;;20.90;99.90;;;;;;5161855;28;20037;-76
2023/09/12 06:51:51;;;;;;;15.23;10.30;;;20.90;99.90;;;;;;5146783;28;20055;-77
2023/09/12 06:54:22;;;;;;;12.13;10.90;;;20.90;99.90;;;;;;5147070;28;20030;-76
2023/09/12 06:56:53;;;;;;;9.73;7.95;;;21.20;99.90;;;;;;5146719;28;20034;-77
2023/09/12 06:59:24;;;;;;;7.63;6.97;;;21.30;99.90;;;;;;5165541;28;20073;-75
2023/09/12 07:01:55;;;;;;;6.25;5.00;;;21.40;99.90;;;;;;5165299;28;20038;-75
2023/09/12 07:04:26;;;;;;;4.90;4.50;;;21.50;99.90;;;;;;5167132;28;20030;-75
2023/09/12 07:06:57;;;;;;;6.25;5.65;;;21.60;99.90;;;;;;5166976;28;20072;-76
2023/09/12 07:09:28;;;;;;;5.88;5.47;;;21.70;99.90;;;;;;5165230;28;20027;-76
2023/09/12 07:11:59;;;;;;;6.00;5.50;;;21.70;99.90;;;;;;5166461;28;20042;-76
2023/09/12 07:14:31;;;;;;;16.02;5.25;;;21.80;99.90;;;;;;5166592;28;20982;-75
2023/09/12 07:17:02;;;;;;;5.70;5.28;;;21.80;99.90;;;;;;5165468;28;20486;-76
2023/09/12 07:19:33;;;;;;;6.22;4.93;;;21.90;99.90;;;;;;5166397;28;20026;-77
2023/09/12 07:22:04;;;;;;;6.03;5.55;;;22.00;99.90;;;;;;5166332;28;20486;-76
2023/09/12 07:24:35;;;;;;;4.82;4.47;;;22.20;99.90;;;;;;5166062;28;20033;-76
2023/09/12 07:27:06;;;;;;;4.70;4.25;;;22.30;99.90;;;;;;5166487;28;20475;-76
2023/09/12 07:29:38;;;;;;;4.30;3.90;;;22.20;99.90;;;;;;5166529;28;20497;-77
2023/09/12 07:32:09;;;;;;;4.95;4.55;;;22.30;99.90;;;;;;5166168;28;20034;-76
2023/09/12 07:34:41;;;;;;;5.65;5.15;;;22.50;99.90;;;;;;5165142;28;20370;-76
2023/09/12 07:37:12;;;;;;;6.13;5.65;;;22.40;99.90;;;;;;5166650;28;20049;-77
2023/09/12 07:39:43;;;;;;;6.03;5.53;;;22.40;99.90;;;;;;5166411;28;20026;-76
2023/09/12 07:42:14;;;;;;;7.18;5.65;;;22.70;99.90;;;;;;5165926;28;20049;-76
2023/09/12 07:44:46;;;;;;;7.93;6.68;;;22.70;99.90;;;;;;5166202;28;20026;-78
2023/09/12 07:47:21;;;;;;;5.57;5.07;;;22.90;99.90;;;;;;5165056;28;20506;-76
2023/09/12 07:49:55;;;;;;;5.43;4.93;;;22.90;99.90;;;;;;5165976;28;20035;-76
2023/09/12 07:52:27;;;;;;;6.50;6.00;;;23.00;99.90;;;;;;5166203;28;20128;-76
2023/09/12 07:55:02;;;;;;;7.05;6.43;;;23.30;99.90;;;;;;5165032;28;20027;-76
2023/09/12 07:57:34;;;;;;;5.78;5.38;;;23.50;99.90;;;;;;5165034;28;20080;-76
2023/09/12 08:00:09;;;;;;;5.20;4.90;;;23.70;99.90;;;;;;5166153;28;20165;-76
2023/09/12 08:02:55;;;;;;;5.22;4.72;;;23.40;99.90;;;;;;5266494;28;20454;-76
2023/09/12 08:05:26;;;;;;;4.15;3.85;;;23.60;99.90;;;;;;5266307;28;20016;-75
2023/09/12 08:07:57;;;;;;;5.20;4.80;;;23.80;99.90;;;;;;5266585;28;20421;-75
2023/09/12 08:10:27;;;;;;;5.07;4.35;;;23.90;99.90;;;;;;5266593;28;20020;-75
2023/09/12 08:12:58;;;;;;;4.60;4.30;;;23.70;99.90;;;;;;5264846;28;20028;-76
2023/09/12 08:15:29;;;;;;;9.20;5.47;;;23.70;99.90;;;;;;5249701;28;20021;-76
2023/09/12 08:18:00;;;;;;;5.88;5.43;;;23.60;99.90;;;;;;5245017;28;20037;-76
2023/09/12 08:20:31;;;;;;;5.25;4.75;;;23.50;99.90;;;;;;5244828;28;20021;-76
2023/09/12 08:23:02;;;;;;;6.78;5.30;;;23.60;99.90;;;;;;5243949;28;20368;-76
2023/09/12 08:25:33;;;;;;;5.60;5.07;;;23.70;99.90;;;;;;5245456;28;20387;-76
2023/09/12 08:28:04;;;;;;;5.88;5.47;;;24.00;99.90;;;;;;5244852;28;20028;-76
2023/09/12 08:30:35;;;;;;;6.55;5.93;;;24.30;99.90;;;;;;5245033;28;20071;-76
2023/09/12 08:33:06;;;;;;;7.10;6.47;;;24.50;99.90;;;;;;5244805;28;20060;-76
2023/09/12 08:35:37;;;;;;;7.63;6.93;;;24.70;99.90;;;;;;5244675;28;20031;-76
2023/09/12 08:38:08;;;;;;;6.60;6.10;;;24.60;99.90;;;;;;5243429;28;20115;-75
2023/09/12 08:40:39;;;;;;;11.40;5.72;;;24.60;99.90;;;;;;5244285;28;20032;-76
2023/09/12 08:43:10;;;;;;;7.18;4.90;;;24.70;99.90;;;;;;5259868;28;20037;-75
2023/09/12 08:45:43;;;;;;;5.85;5.45;;;24.50;99.90;;;;;;5243154;28;20036;-76
2023/09/12 08:48:16;;;;;;;5.47;5.00;;;24.60;99.90;;;;;;5243375;28;20024;-76
2023/09/12 08:50:49;;;;;;;5.82;5.32;;;24.40;99.90;;;;;;5244718;28;20087;-76
2023/09/12 08:53:22;;;;;;;6.28;5.85;;;24.40;99.90;;;;;;5244429;28;20020;-76
2023/09/12 08:55:53;;;;;;;5.95;5.50;;;24.80;99.90;;;;;;5244183;28;20021;-77
2023/09/12 08:58:25;;;;;;;6.75;6.03;;;25.00;99.90;;;;;;5242888;28;20048;-75
2023/09/12 09:00:56;;;;;;;6.75;6.20;;;25.10;99.90;;;;;;5243919;28;20046;-75
2023/09/12 09:03:28;;;;;;;7.40;5.90;;;25.20;99.90;;;;;;5244135;28;20033;-76
2023/09/12 09:06:01;;;;;;;5.95;5.55;;;25.40;99.90;;;;;;5259698;28;20024;-76
2023/09/12 09:08:33;;;;;;;6.97;5.47;;;25.60;99.90;;;;;;5244010;28;20033;-75
2023/09/12 09:11:06;;;;;;;5.57;5.13;;;25.70;99.90;;;;;;5244398;28;20027;-76
2023/09/12 09:13:37;;;;;;;5.78;5.35;;;25.80;99.90;;;;;;5233833;28;20071;-75
2023/09/12 09:16:15;;;;;;;7.07;5.45;;;25.50;99.90;;;;;;5230109;28;20059;-75
2023/09/12 09:18:58;;;;;;;5.88;5.47;;;25.50;99.90;;;;;;5229763;28;20029;-75
2023/09/12 09:21:33;;;;;;;5.72;5.22;;;25.50;99.90;;;;;;5228641;28;20036;-76
2023/09/12 09:24:10;;;;;;;5.90;5.50;;;25.50;99.90;;;;;;5228764;28;20025;-75
2023/09/12 09:26:50;;;;;;;5.65;5.15;;;25.20;99.90;;;;;;5229738;28;20025;-75
2023/09/12 09:29:21;;;;;;;6.03;5.47;;;25.70;99.90;;;;;;5230104;28;20481;-75
2023/09/12 09:31:52;;;;;;;5.80;5.25;;;25.40;99.90;;;;;;5230032;28;20040;-76
2023/09/12 09:34:24;;;;;;;6.05;5.63;;;25.60;99.90;;;;;;5229922;28;20070;-76
2023/09/12 09:36:56;;;;;;;6.47;5.95;;;25.80;99.90;;;;;;5229858;28;20040;-76
2023/09/12 09:39:31;;;;;;;6.40;5.50;;;25.70;99.90;;;;;;5229873;28;20052;-75
2023/09/12 09:42:02;;;;;;;5.38;4.88;;;25.30;99.90;;;;;;5228729;28;20037;-75
2023/09/12 09:44:33;;;;;;;6.05;5.22;;;25.30;99.90;;;;;;5230029;28;20024;-75
2023/09/12 09:47:04;;;;;;;5.75;5.30;;;25.40;99.90;;;;;;5229387;28;20388;-76
2023/09/12 09:49:35;;;;;;;8.57;7.75;;;25.80;99.90;;;;;;5228016;28;20036;-76
2023/09/12 09:52:06;;;;;;;7.80;7.10;;;25.70;99.90;;;;;;5229638;28;20029;-76
2023/09/12 09:54:43;;;;;;;7.03;6.63;;;25.90;99.90;;;;;;5229225;28;20056;-75
2023/09/12 09:57:14;;;;;;;9.07;8.25;;;26.00;99.90;;;;;;5229281;28;20074;-75
2023/09/12 09:59:52;;;;;;;8.80;8.20;;;26.00;99.90;;;;;;5229394;28;20036;-76
2023/09/12 10:02:27;;;;;;;9.07;8.43;;;26.10;99.90;;;;;;5228276;28;20111;-75
2023/09/12 10:05:00;;;;;;;7.82;7.30;;;26.40;99.90;;;;;;5229265;28;20475;-76
2023/09/12 10:07:33;;;;;;;9.13;6.95;;;26.20;99.90;;;;;;5227850;28;20021;-75
2023/09/12 10:10:04;;;;;;;7.28;6.57;;;26.20;99.90;;;;;;5229179;28;20028;-75
2023/09/12 10:12:38;;;;;;;7.55;6.95;;;26.60;99.90;;;;;;5227004;28;20380;-75
2023/09/12 10:15:14;;;;;;;7.05;6.35;;;26.40;99.90;;;;;;5227297;28;20033;-75
2023/09/12 10:17:50;;;;;;;6.75;6.00;;;26.40;99.90;;;;;;5228743;28;20017;-76
2023/09/12 10:20:33;;;;;;;7.28;6.45;;;26.40;99.90;;;;;;5227456;28;20090;-75
2023/09/12 10:23:11;;;;;;;6.55;6.00;;;26.10;99.90;;;;;;5227205;28;20060;-76
2023/09/12 10:25:44;;;;;;;5.20;4.80;;;26.30;99.90;;;;;;5227574;28;20028;-75
2023/09/12 10:28:17;;;;;;;6.75;5.25;;;26.50;99.90;;;;;;5229014;28;20096;-76
2023/09/12 10:30:49;;;;;;;6.15;5.65;;;26.40;99.90;;;;;;5227610;28;20725;-76
2023/09/12 10:33:20;;;;;;;6.57;6.10;;;26.50;99.90;;;;;;5227655;28;20029;-75
2023/09/12 10:35:52;;;;;;;5.57;5.07;;;26.70;99.90;;;;;;5228826;28;20028;-76
2023/09/12 10:38:26;;;;;;;7.18;5.97;;;26.70;99.90;;;;;;5227670;28;20598;-75
2023/09/12 10:40:59;;;;;;;7.53;5.95;;;27.00;99.90;;;;;;5227286;28;20496;-75
2023/09/12 10:43:33;;;;;;;6.15;5.65;;;26.50;99.90;;;;;;5228723;28;20159;-75
2023/09/12 10:46:04;;;;;;;5.70;5.20;;;26.30;99.90;;;;;;5228587;28;20429;-75
2023/09/12 10:48:36;;;;;;;6.05;5.45;;;26.30;99.90;;;;;;5228481;28;20143;-76
2023/09/12 10:51:10;;;;;;;7.85;5.07;;;26.30;99.90;;;;;;5228301;28;20466;-75
2023/09/12 10:53:49;;;;;;;5.13;4.72;;;26.40;99.90;;;;;;5228522;28;20068;-76
2023/09/12 10:56:21;;;;;;;10.98;5.68;;;26.30;99.90;;;;;;5228538;28;20078;-76
2023/09/12 10:59:04;;;;;;;5.97;5.07;;;26.50;99.90;;;;;;5228166;28;20036;-75
2023/09/12 11:01:36;;;;;;;5.90;4.95;;;26.70;99.90;;;;;;5227804;28;20572;-76
2023/09/12 11:04:32;;;;;;;5.65;5.15;;;26.30;99.90;;;;;;5226883;28;20149;-75
2023/09/12 11:07:46;;;;;;;7.53;6.00;;;26.50;99.90;;;;;;5221227;28;20037;-75
2023/09/12 11:10:19;;;;;;;5.43;4.93;;;26.90;99.90;;;;;;5201437;28;20041;-76
2023/09/12 11:15:31;;;;;;;5.72;5.22;;;26.30;99.90;;;;;;5393645;22;20054;-75
2023/09/12 11:18:06;;;;;;;6.13;5.53;;;26.40;99.90;;;;;;5206583;28;20021;-73
2023/09/12 11:21:12;;;;;;;6.53;5.93;;;26.30;99.90;;;;;;5207073;28;20449;-75
2023/09/12 11:23:54;;;;;;;5.90;4.75;;;26.60;99.90;;;;;;5188530;28;20156;-77
2023/09/12 11:26:25;;;;;;;6.35;5.60;;;26.50;99.90;;;;;;5185527;28;20044;-77
2023/09/12 11:28:56;;;;;;;5.63;4.60;;;26.40;99.90;;;;;;5186673;28;20084;-77
2023/09/12 11:31:27;;;;;;;8.50;5.53;;;26.50;99.90;;;;;;5186641;28;20408;-78
2023/09/12 11:34:01;;;;;;;6.05;5.55;;;26.80;99.90;;;;;;5186929;28;20080;-77
2023/09/12 11:36:39;;;;;;;6.03;5.00;;;26.80;99.90;;;;;;5185500;28;20509;-77
2023/09/12 11:39:28;;;;;;;7.57;6.18;;;26.70;99.90;;;;;;5185537;28;20084;-79
2023/09/12 11:42:01;;;;;;;7.53;6.93;;;26.90;99.90;;;;;;5185381;28;20033;-77
2023/09/12 11:44:32;;;;;;;6.70;6.10;;;26.60;99.90;;;;;;5197441;28;20041;-79
2023/09/12 11:47:06;;;;;;;8.55;5.63;;;26.10;99.90;;;;;;5206446;28;20480;-77
2023/09/12 11:49:38;;;;;;;6.35;5.88;;;26.00;99.90;;;;;;5226043;28;20036;-79
2023/09/12 11:52:16;;;;;;;5.72;4.97;;;26.10;99.90;;;;;;5226430;28;20552;-78
2023/09/12 11:54:47;;;;;;;6.53;5.93;;;26.50;99.90;;;;;;5228084;28;20107;-78
2023/09/12 11:57:18;;;;;;;7.78;6.57;;;26.40;99.90;;;;;;5226021;28;20059;-78
2023/09/12 11:59:51;;;;;;;7.00;6.28;;;26.30;99.90;;;;;;5225990;28;20028;-78
2023/09/12 12:02:23;;;;;;;7.28;6.70;;;26.60;99.90;;;;;;5228124;28;20025;-78
2023/09/12 12:04:57;;;;;;;8.63;8.02;;;26.80;99.90;;;;;;5226370;28;20491;-78
2023/09/12 12:07:27;;;;;;;9.10;8.50;;;26.90;99.90;;;;;;5227569;28;20053;-78
2023/09/12 12:09:58;;;;;;;12.38;11.52;;;27.20;99.90;;;;;;5227717;28;20056;-78
2023/09/12 12:12:29;;;;;;;13.95;13.07;;;27.00;99.90;;;;;;5227371;28;20448;-78
2023/09/12 12:15:00;;;;;;;14.30;13.30;;;26.80;99.90;;;;;;5227194;28;20053;-78
2023/09/12 12:17:31;;;;;;;16.63;15.63;;;26.50;99.90;;;;;;5225858;28;20033;-79
2023/09/12 12:20:07;;;;;;;18.70;17.55;;;26.80;99.90;;;;;;5226414;28;20427;-78
2023/09/12 12:22:41;;;;;;;17.85;16.20;;;26.80;99.90;;;;;;5227478;28;20083;-78
2023/09/12 12:25:12;;;;;;;14.52;13.65;;;26.80;99.90;;;;;;5226190;28;20021;-78
2023/09/12 12:27:43;;;;;;;16.73;15.77;;;26.90;99.90;;;;;;5227256;28;20032;-78
2023/09/12 12:30:23;;;;;;;14.27;12.98;;;27.00;99.90;;;;;;5226061;28;20078;-78
2023/09/12 12:33:00;;;;;;;11.98;11.18;;;27.00;99.90;;;;;;5227330;28;20021;-78
2023/09/12 12:35:32;;;;;;;10.00;9.35;;;27.20;99.90;;;;;;5225789;28;20087;-78
2023/09/12 12:38:03;;;;;;;9.10;8.40;;;27.10;99.90;;;;;;5225970;28;20115;-78
2023/09/12 12:40:42;;;;;;;9.10;8.48;;;27.10;99.90;;;;;;5227214;28;20075;-80
2023/09/12 12:43:20;;;;;;;10.18;9.40;;;26.80;99.90;;;;;;5227195;28;20444;-79
2023/09/12 12:46:05;;;;;;;11.25;10.18;;;26.40;99.90;;;;;;5225688;28;20427;-79
2023/09/12 12:48:37;;;;;;;10.93;10.02;;;26.80;99.90;;;;;;5229075;28;20056;-80
2023/09/12 12:51:23;;;;;;;8.20;7.55;;;27.10;99.90;;;;;;5230993;28;20105;-79
2023/09/12 12:54:03;;;;;;;8.10;7.47;;;26.80;99.90;;;;;;5231136;28;20096;-80
2023/09/12 12:56:34;;;;;;;6.82;6.32;;;26.80;99.90;;;;;;5229502;28;20025;-78
2023/09/12 12:59:08;;;;;;;5.47;5.07;;;26.60;99.90;;;;;;5229350;28;20033;-78
2023/09/12 13:01:39;;;;;;;5.65;5.03;;;27.00;99.90;;;;;;5230829;28;20655;-78
2023/09/12 13:04:10;;;;;;;6.47;4.95;;;26.90;99.90;;;;;;5230336;28;20083;-78
2023/09/12 13:06:41;;;;;;;5.65;5.15;;;26.70;99.90;;;;;;5230444;28;20039;-79
2023/09/12 13:09:12;;;;;;;5.32;4.95;;;27.00;99.90;;;;;;5229062;28;20100;-79
2023/09/12 13:11:43;;;;;;;5.60;4.70;;;27.10;99.90;;;;;;5230679;28;20139;-78
2023/09/12 13:14:14;;;;;;;5.03;4.35;;;27.10;99.90;;;;;;5230309;28;20049;-79
2023/09/12 13:16:45;;;;;;;6.45;4.63;;;27.00;99.90;;;;;;5230633;28;20029;-78